sensor_id;sensor_type;location;lat;lon;timestamp;temperature;humidity
2907;DHT22;1463;51.070;16.998;2023-08-31T00:00:08;16.50;99.90
2907;DHT22;1463;51.070;16.998;2023-08-31T00:02:38;16.50;99.90
2907;DHT22;1463;51.070;16.998;2023-08-31T00:05:05;16.50;99.90
2907;DHT22;1463;51.070;16.998;2023-08-31T00:07:32;16.50;99.90
2907;DHT22;1463;51.070;16.998;2023-08-31T00:09:58;16.50;99.90
2907;DHT22;1463;51.070;16.998;2023-08-31T00:12:27;16.60;99.90
2907;DHT22;1463;51.070;16.998;2023-08-31T00:14:53;16.50;99.90
2907;DHT22;1463;51.070;16.998;2023-08-31T00:17:20;16.50;99.90
2907;DHT22;1463;51.070;16.998;2023-08-31T00:19:50;16.50;99.90
2907;DHT22;1463;51.070;16.998;2023-08-31T00:22:17;16.50;99.90
2907;DHT22;1463;51.070;16.998;2023-08-31T00:24:44;16.50;99.90
2907;DHT22;1463;51.070;16.998;2023-08-31T00:27:11;16.50;99.90
2907;DHT22;1463;51.070;16.998;2023-08-31T00:29:40;16.50;99.90
2907;DHT22;1463;51.070;16.998;2023-08-31T00:32:09;16.50;99.90
2907;DHT22;1463;51.070;16.998;2023-08-31T00:34:35;16.40;99.90
2907;DHT22;1463;51.070;16.998;2023-08-31T00:37:03;16.50;99.90
2907;DHT22;1463;51.070;16.998;2023-08-31T00:39:31;16.50;99.90
2907;DHT22;1463;51.070;16.998;2023-08-31T00:41:58;16.50;99.90
2907;DHT22;1463;51.070;16.998;2023-08-31T00:44:27;16.50;99.90
2907;DHT22;1463;51.070;16.998;2023-08-31T00:46:55;16.40;99.90
2907;DHT22;1463;51.070;16.998;2023-08-31T00:49:22;16.40;99.90
2907;DHT22;1463;51.070;16.998;2023-08-31T00:51:49;16.50;99.90
2907;DHT22;1463;51.070;16.998;2023-08-31T00:54:16;16.40;99.90
2907;DHT22;1463;51.070;16.998;2023-08-31T00:56:44;16.40;99.90
2907;DHT22;1463;51.070;16.998;2023-08-31T00:59:11;16.40;99.90
2907;DHT22;1463;51.070;16.998;2023-08-31T01:01:43;16.40;99.90
2907;DHT22;1463;51.070;16.998;2023-08-31T01:04:21;16.30;99.90
2907;DHT22;1463;51.070;16.998;2023-08-31T01:06:59;16.40;99.90
2907;DHT22;1463;51.070;16.998;2023-08-31T01:09:34;16.40;99.90
2907;DHT22;1463;51.070;16.998;2023-08-31T01:12:05;16.30;99.90
2907;DHT22;1463;51.070;16.998;2023-08-31T01:14:43;16.40;99.90
2907;DHT22;1463;51.070;16.998;2023-08-31T01:17:12;16.40;99.90
2907;DHT22;1463;51.070;16.998;2023-08-31T01:19:47;16.30;99.90
2907;DHT22;1463;51.070;16.998;2023-08-31T01:22:26;16.30;99.90
2907;DHT22;1463;51.070;16.998;2023-08-31T01:24:58;16.30;99.90
2907;DHT22;1463;51.070;16.998;2023-08-31T01:27:29;16.30;99.90
2907;DHT22;1463;51.070;16.998;2023-08-31T01:29:56;16.20;99.90
2907;DHT22;1463;51.070;16.998;2023-08-31T01:32:23;16.30;99.90
2907;DHT22;1463;51.070;16.998;2023-08-31T01:34:50;16.20;99.90
2907;DHT22;1463;51.070;16.998;2023-08-31T01:37:24;16.20;99.90
2907;DHT22;1463;51.070;16.998;2023-08-31T01:39:58;16.20;99.90
2907;DHT22;1463;51.070;16.998;2023-08-31T01:42:29;16.20;99.90
2907;DHT22;1463;51.070;16.998;2023-08-31T01:45:01;16.20;99.90
2907;DHT22;1463;51.070;16.998;2023-08-31T01:47:30;16.20;99.90
2907;DHT22;1463;51.070;16.998;2023-08-31T01:49:57;16.20;99.90
2907;DHT22;1463;51.070;16.998;2023-08-31T01:52:25;16.20;99.90
2907;DHT22;1463;51.070;16.998;2023-08-31T01:54:51;16.10;99.90
2907;DHT22;1463;51.070;16.998;2023-08-31T01:57:19;16.10;99.90
2907;DHT22;1463;51.070;16.998;2023-08-31T01:59:46;16.10;99.90
2907;DHT22;1463;51.070;16.998;2023-08-31T02:02:13;16.10;99.90
2907;DHT22;1463;51.070;16.998;2023-08-31T02:04:40;16.10;99.90
2907;DHT22;1463;51.070;16.998;2023-08-31T02:07:07;16.10;99.90
2907;DHT22;1463;51.070;16.998;2023-08-31T02:09:34;16.10;99.90
2907;DHT22;1463;51.070;16.998;2023-08-31T02:12:00;16.10;99.90
2907;DHT22;1463;51.070;16.998;2023-08-31T02:14:29;16.00;99.90
2907;DHT22;1463;51.070;16.998;2023-08-31T02:16:56;16.10;99.90
2907;DHT22;1463;51.070;16.998;2023-08-31T02:19:23;16.10;99.90
2907;DHT22;1463;51.070;16.998;2023-08-31T02:21:49;16.10;99.90
2907;DHT22;1463;51.070;16.998;2023-08-31T02:24:16;16.10;99.90
2907;DHT22;1463;51.070;16.998;2023-08-31T02:26:43;16.10;99.90
2907;DHT22;1463;51.070;16.998;2023-08-31T02:29:10;16.10;99.90
2907;DHT22;1463;51.070;16.998;2023-08-31T02:31:38;16.10;99.90
2907;DHT22;1463;51.070;16.998;2023-08-31T02:34:05;16.00;99.90
2907;DHT22;1463;51.070;16.998;2023-08-31T02:36:32;16.10;99.90
2907;DHT22;1463;51.070;16.998;2023-08-31T02:38:58;16.00;99.90
2907;DHT22;1463;51.070;16.998;2023-08-31T02:41:25;16.10;99.90
2907;DHT22;1463;51.070;16.998;2023-08-31T02:43:52;16.00;99.90
2907;DHT22;1463;51.070;16.998;2023-08-31T02:46:19;16.00;99.90
2907;DHT22;1463;51.070;16.998;2023-08-31T02:48:49;16.00;99.90
2907;DHT22;1463;51.070;16.998;2023-08-31T02:51:16;16.00;99.90
2907;DHT22;1463;51.070;16.998;2023-08-31T02:53:43;16.00;99.90
2907;DHT22;1463;51.070;16.998;2023-08-31T02:56:09;16.00;99.90
2907;DHT22;1463;51.070;16.998;2023-08-31T02:58:37;16.00;99.90
2907;DHT22;1463;51.070;16.998;2023-08-31T03:01:08;16.00;99.90
2907;DHT22;1463;51.070;16.998;2023-08-31T03:03:36;16.00;99.90
2907;DHT22;1463;51.070;16.998;2023-08-31T03:06:06;16.00;99.90
2907;DHT22;1463;51.070;16.998;2023-08-31T03:08:33;16.00;99.90
2907;DHT22;1463;51.070;16.998;2023-08-31T03:11:00;16.00;99.90
2907;DHT22;1463;51.070;16.998;2023-08-31T03:13:26;16.00;99.90
2907;DHT22;1463;51.070;16.998;2023-08-31T03:15:53;15.90;99.90
2907;DHT22;1463;51.070;16.998;2023-08-31T03:18:21;15.90;99.90
2907;DHT22;1463;51.070;16.998;2023-08-31T03:20:48;16.00;99.90
2907;DHT22;1463;51.070;16.998;2023-08-31T03:23:16;15.90;99.90
2907;DHT22;1463;51.070;16.998;2023-08-31T03:25:43;15.90;99.90
2907;DHT22;1463;51.070;16.998;2023-08-31T03:28:10;15.90;99.90
2907;DHT22;1463;51.070;16.998;2023-08-31T03:30:37;15.90;99.90
2907;DHT22;1463;51.070;16.998;2023-08-31T03:33:04;15.90;99.90
2907;DHT22;1463;51.070;16.998;2023-08-31T03:35:31;15.90;99.90
2907;DHT22;1463;51.070;16.998;2023-08-31T03:38:03;15.90;99.90
2907;DHT22;1463;51.070;16.998;2023-08-31T03:40:32;15.90;99.90
2907;DHT22;1463;51.070;16.998;2023-08-31T03:42:58;15.90;99.90
2907;DHT22;1463;51.070;16.998;2023-08-31T03:45:28;15.90;99.90
2907;DHT22;1463;51.070;16.998;2023-08-31T03:47:55;15.90;99.90
2907;DHT22;1463;51.070;16.998;2023-08-31T03:50:22;15.90;99.90
2907;DHT22;1463;51.070;16.998;2023-08-31T03:52:49;15.90;99.90
2907;DHT22;1463;51.070;16.998;2023-08-31T03:55:15;15.90;99.90
2907;DHT22;1463;51.070;16.998;2023-08-31T03:57:44;15.90;99.90
2907;DHT22;1463;51.070;16.998;2023-08-31T04:00:16;15.90;99.90
2907;DHT22;1463;51.070;16.998;2023-08-31T04:02:46;15.80;99.90
2907;DHT22;1463;51.070;16.998;2023-08-31T04:05:13;15.80;99.90
2907;DHT22;1463;51.070;16.998;2023-08-31T04:07:40;15.80;99.90
2907;DHT22;1463;51.070;16.998;2023-08-31T04:10:08;15.80;99.90
2907;DHT22;1463;51.070;16.998;2023-08-31T04:12:37;15.80;99.90
2907;DHT22;1463;51.070;16.998;2023-08-31T04:15:07;15.80;99.90
2907;DHT22;1463;51.070;16.998;2023-08-31T04:17:34;15.80;99.90
2907;DHT22;1463;51.070;16.998;2023-08-31T04:20:01;15.80;99.90
2907;DHT22;1463;51.070;16.998;2023-08-31T04:22:31;15.90;99.90
2907;DHT22;1463;51.070;16.998;2023-08-31T04:25:01;15.80;99.90
2907;DHT22;1463;51.070;16.998;2023-08-31T04:27:30;15.80;99.90
2907;DHT22;1463;51.070;16.998;2023-08-31T04:29:57;15.80;99.90
2907;DHT22;1463;51.070;16.998;2023-08-31T04:32:25;15.90;99.90
2907;DHT22;1463;51.070;16.998;2023-08-31T04:34:52;15.90;99.90
2907;DHT22;1463;51.070;16.998;2023-08-31T04:37:21;15.80;99.90
2907;DHT22;1463;51.070;16.998;2023-08-31T04:39:48;15.90;99.90
2907;DHT22;1463;51.070;16.998;2023-08-31T04:42:14;15.80;99.90
2907;DHT22;1463;51.070;16.998;2023-08-31T04:44:42;15.80;99.90
2907;DHT22;1463;51.070;16.998;2023-08-31T04:47:09;15.90;99.90
2907;DHT22;1463;51.070;16.998;2023-08-31T04:49:37;15.80;99.90
2907;DHT22;1463;51.070;16.998;2023-08-31T04:52:04;15.80;99.90
2907;DHT22;1463;51.070;16.998;2023-08-31T04:54:31;15.80;99.90
2907;DHT22;1463;51.070;16.998;2023-08-31T04:56:58;15.80;99.90
2907;DHT22;1463;51.070;16.998;2023-08-31T04:59:25;15.80;99.90
2907;DHT22;1463;51.070;16.998;2023-08-31T05:01:51;15.90;99.90
2907;DHT22;1463;51.070;16.998;2023-08-31T05:04:18;15.80;99.90
2907;DHT22;1463;51.070;16.998;2023-08-31T05:06:46;15.90;99.90
2907;DHT22;1463;51.070;16.998;2023-08-31T05:09:13;15.90;99.90
2907;DHT22;1463;51.070;16.998;2023-08-31T05:11:40;15.90;99.90
2907;DHT22;1463;51.070;16.998;2023-08-31T05:14:07;15.90;99.90
2907;DHT22;1463;51.070;16.998;2023-08-31T05:16:33;15.80;99.90
2907;DHT22;1463;51.070;16.998;2023-08-31T05:19:00;15.90;99.90
2907;DHT22;1463;51.070;16.998;2023-08-31T05:21:27;15.90;99.90
2907;DHT22;1463;51.070;16.998;2023-08-31T05:23:55;15.90;99.90
2907;DHT22;1463;51.070;16.998;2023-08-31T05:26:23;15.90;99.90
2907;DHT22;1463;51.070;16.998;2023-08-31T05:28:50;15.80;99.90
2907;DHT22;1463;51.070;16.998;2023-08-31T05:31:16;15.90;99.90
2907;DHT22;1463;51.070;16.998;2023-08-31T05:33:46;15.80;99.90
2907;DHT22;1463;51.070;16.998;2023-08-31T05:36:13;15.90;99.90
2907;DHT22;1463;51.070;16.998;2023-08-31T05:38:40;15.90;99.90
2907;DHT22;1463;51.070;16.998;2023-08-31T05:41:08;15.90;99.90
2907;DHT22;1463;51.070;16.998;2023-08-31T05:43:35;15.90;99.90
2907;DHT22;1463;51.070;16.998;2023-08-31T05:46:05;15.90;99.90
2907;DHT22;1463;51.070;16.998;2023-08-31T05:48:32;16.00;99.90
2907;DHT22;1463;51.070;16.998;2023-08-31T05:50:59;16.00;99.90
2907;DHT22;1463;51.070;16.998;2023-08-31T05:53:26;16.00;99.90
2907;DHT22;1463;51.070;16.998;2023-08-31T05:55:54;16.00;99.90
2907;DHT22;1463;51.070;16.998;2023-08-31T05:58:30;16.00;99.90
2907;DHT22;1463;51.070;16.998;2023-08-31T06:00:57;16.00;99.90
2907;DHT22;1463;51.070;16.998;2023-08-31T06:03:23;15.90;99.90
2907;DHT22;1463;51.070;16.998;2023-08-31T06:05:50;15.90;99.90
2907;DHT22;1463;51.070;16.998;2023-08-31T06:08:17;16.00;99.90
2907;DHT22;1463;51.070;16.998;2023-08-31T06:10:44;16.00;99.90
2907;DHT22;1463;51.070;16.998;2023-08-31T06:13:11;16.00;99.90
2907;DHT22;1463;51.070;16.998;2023-08-31T06:15:39;16.10;99.90
2907;DHT22;1463;51.070;16.998;2023-08-31T06:18:06;16.10;99.90
2907;DHT22;1463;51.070;16.998;2023-08-31T06:20:32;16.20;99.90
2907;DHT22;1463;51.070;16.998;2023-08-31T06:22:59;16.20;99.90
2907;DHT22;1463;51.070;16.998;2023-08-31T06:25:26;16.20;99.90
2907;DHT22;1463;51.070;16.998;2023-08-31T06:27:53;16.30;99.90
2907;DHT22;1463;51.070;16.998;2023-08-31T06:30:20;16.30;99.90
2907;DHT22;1463;51.070;16.998;2023-08-31T06:32:48;16.40;99.90
2907;DHT22;1463;51.070;16.998;2023-08-31T06:35:15;16.40;99.90
2907;DHT22;1463;51.070;16.998;2023-08-31T06:37:43;16.40;99.90
2907;DHT22;1463;51.070;16.998;2023-08-31T06:40:11;16.50;99.90
2907;DHT22;1463;51.070;16.998;2023-08-31T06:42:39;16.50;99.90
2907;DHT22;1463;51.070;16.998;2023-08-31T06:45:07;16.60;99.90
2907;DHT22;1463;51.070;16.998;2023-08-31T06:47:34;16.70;99.90
2907;DHT22;1463;51.070;16.998;2023-08-31T06:50:03;16.60;99.90
2907;DHT22;1463;51.070;16.998;2023-08-31T06:52:30;16.60;99.90
2907;DHT22;1463;51.070;16.998;2023-08-31T06:54:56;16.60;99.90
2907;DHT22;1463;51.070;16.998;2023-08-31T06:57:23;16.70;99.90
2907;DHT22;1463;51.070;16.998;2023-08-31T06:59:52;16.70;99.90
2907;DHT22;1463;51.070;16.998;2023-08-31T07:02:19;16.80;99.90
2907;DHT22;1463;51.070;16.998;2023-08-31T07:04:47;16.90;99.90
2907;DHT22;1463;51.070;16.998;2023-08-31T07:07:16;16.90;99.90
2907;DHT22;1463;51.070;16.998;2023-08-31T07:09:44;17.00;99.90
2907;DHT22;1463;51.070;16.998;2023-08-31T07:12:10;17.10;99.90
2907;DHT22;1463;51.070;16.998;2023-08-31T07:14:38;17.20;99.90
2907;DHT22;1463;51.070;16.998;2023-08-31T07:17:05;17.30;99.90
2907;DHT22;1463;51.070;16.998;2023-08-31T07:19:36;17.40;99.90
2907;DHT22;1463;51.070;16.998;2023-08-31T07:22:03;17.40;99.90
2907;DHT22;1463;51.070;16.998;2023-08-31T07:24:33;17.50;99.90
2907;DHT22;1463;51.070;16.998;2023-08-31T07:27:02;17.50;99.90
2907;DHT22;1463;51.070;16.998;2023-08-31T07:29:28;17.60;99.90
2907;DHT22;1463;51.070;16.998;2023-08-31T07:31:55;17.80;99.90
2907;DHT22;1463;51.070;16.998;2023-08-31T07:34:22;17.80;99.90
2907;DHT22;1463;51.070;16.998;2023-08-31T07:36:49;17.60;99.90
2907;DHT22;1463;51.070;16.998;2023-08-31T07:39:16;17.60;99.90
2907;DHT22;1463;51.070;16.998;2023-08-31T07:41:45;17.60;99.90
2907;DHT22;1463;51.070;16.998;2023-08-31T07:44:11;17.60;99.90
2907;DHT22;1463;51.070;16.998;2023-08-31T07:46:38;17.80;99.90
2907;DHT22;1463;51.070;16.998;2023-08-31T07:49:05;17.60;99.90
2907;DHT22;1463;51.070;16.998;2023-08-31T07:51:32;17.70;99.90
2907;DHT22;1463;51.070;16.998;2023-08-31T07:53:59;17.70;99.90
2907;DHT22;1463;51.070;16.998;2023-08-31T07:56:26;17.70;99.90
2907;DHT22;1463;51.070;16.998;2023-08-31T07:58:54;17.70;99.90
2907;DHT22;1463;51.070;16.998;2023-08-31T08:01:21;17.80;99.90
2907;DHT22;1463;51.070;16.998;2023-08-31T08:03:48;17.90;99.90
2907;DHT22;1463;51.070;16.998;2023-08-31T08:06:14;18.10;99.90
2907;DHT22;1463;51.070;16.998;2023-08-31T08:08:41;18.10;99.90
2907;DHT22;1463;51.070;16.998;2023-08-31T08:11:08;18.20;99.90
2907;DHT22;1463;51.070;16.998;2023-08-31T08:13:37;18.00;99.90
2907;DHT22;1463;51.070;16.998;2023-08-31T08:16:05;18.00;99.90
2907;DHT22;1463;51.070;16.998;2023-08-31T08:18:33;18.00;99.90
2907;DHT22;1463;51.070;16.998;2023-08-31T08:21:00;18.00;99.90
2907;DHT22;1463;51.070;16.998;2023-08-31T08:23:27;18.10;99.90
2907;DHT22;1463;51.070;16.998;2023-08-31T08:25:53;19.80;99.90
2907;DHT22;1463;51.070;16.998;2023-08-31T08:28:20;18.70;99.90
2907;DHT22;1463;51.070;16.998;2023-08-31T08:30:47;18.60;99.90
2907;DHT22;1463;51.070;16.998;2023-08-31T08:33:15;18.70;99.90
2907;DHT22;1463;51.070;16.998;2023-08-31T08:35:42;18.40;99.90
2907;DHT22;1463;51.070;16.998;2023-08-31T08:38:09;18.30;99.90
2907;DHT22;1463;51.070;16.998;2023-08-31T08:40:35;18.20;99.90
2907;DHT22;1463;51.070;16.998;2023-08-31T08:43:06;18.10;99.90
2907;DHT22;1463;51.070;16.998;2023-08-31T08:45:36;18.00;99.90
2907;DHT22;1463;51.070;16.998;2023-08-31T08:48:05;18.00;99.90
2907;DHT22;1463;51.070;16.998;2023-08-31T08:50:35;18.00;99.90
2907;DHT22;1463;51.070;16.998;2023-08-31T08:53:02;18.00;99.90
2907;DHT22;1463;51.070;16.998;2023-08-31T08:55:30;17.80;99.90
2907;DHT22;1463;51.070;16.998;2023-08-31T08:57:58;17.70;99.90
2907;DHT22;1463;51.070;16.998;2023-08-31T09:00:25;17.60;99.90
2907;DHT22;1463;51.070;16.998;2023-08-31T09:02:52;17.60;99.90
2907;DHT22;1463;51.070;16.998;2023-08-31T09:05:19;17.50;99.90
2907;DHT22;1463;51.070;16.998;2023-08-31T09:08:04;17.50;99.90
2907;DHT22;1463;51.070;16.998;2023-08-31T09:10:36;17.40;99.90
2907;DHT22;1463;51.070;16.998;2023-08-31T09:13:05;17.30;99.90
2907;DHT22;1463;51.070;16.998;2023-08-31T09:15:39;17.30;99.90
2907;DHT22;1463;51.070;16.998;2023-08-31T09:18:06;17.20;99.90
2907;DHT22;1463;51.070;16.998;2023-08-31T09:20:42;17.10;99.90
2907;DHT22;1463;51.070;16.998;2023-08-31T09:23:11;17.20;99.90
2907;DHT22;1463;51.070;16.998;2023-08-31T09:25:41;17.30;99.90
2907;DHT22;1463;51.070;16.998;2023-08-31T09:28:09;17.20;99.90
2907;DHT22;1463;51.070;16.998;2023-08-31T09:30:36;17.20;99.90
2907;DHT22;1463;51.070;16.998;2023-08-31T09:33:07;17.20;99.90
2907;DHT22;1463;51.070;16.998;2023-08-31T09:35:38;17.20;99.90
2907;DHT22;1463;51.070;16.998;2023-08-31T09:38:08;17.10;99.90
2907;DHT22;1463;51.070;16.998;2023-08-31T09:40:37;17.10;99.90
2907;DHT22;1463;51.070;16.998;2023-08-31T09:43:04;16.90;99.90
2907;DHT22;1463;51.070;16.998;2023-08-31T09:45:34;16.80;99.90
2907;DHT22;1463;51.070;16.998;2023-08-31T09:48:03;16.80;99.90
2907;DHT22;1463;51.070;16.998;2023-08-31T09:50:31;16.70;99.90
2907;DHT22;1463;51.070;16.998;2023-08-31T09:53:03;16.70;99.90
2907;DHT22;1463;51.070;16.998;2023-08-31T09:55:31;16.60;99.90
2907;DHT22;1463;51.070;16.998;2023-08-31T09:58:01;16.70;99.90
2907;DHT22;1463;51.070;16.998;2023-08-31T10:00:30;16.70;99.90
2907;DHT22;1463;51.070;16.998;2023-08-31T10:03:00;16.60;99.90
2907;DHT22;1463;51.070;16.998;2023-08-31T10:05:28;16.50;99.90
2907;DHT22;1463;51.070;16.998;2023-08-31T10:07:55;16.60;99.90
2907;DHT22;1463;51.070;16.998;2023-08-31T10:10:24;16.50;99.90
2907;DHT22;1463;51.070;16.998;2023-08-31T10:12:51;16.50;99.90
2907;DHT22;1463;51.070;16.998;2023-08-31T10:15:19;16.50;99.90
2907;DHT22;1463;51.070;16.998;2023-08-31T10:17:46;16.50;99.90
2907;DHT22;1463;51.070;16.998;2023-08-31T10:20:16;16.60;99.90
2907;DHT22;1463;51.070;16.998;2023-08-31T10:22:43;16.60;99.90
2907;DHT22;1463;51.070;16.998;2023-08-31T10:25:13;16.60;99.90
2907;DHT22;1463;51.070;16.998;2023-08-31T10:27:40;16.60;99.90
2907;DHT22;1463;51.070;16.998;2023-08-31T10:30:30;16.60;99.90
2907;DHT22;1463;51.070;16.998;2023-08-31T10:33:22;16.50;99.90
2907;DHT22;1463;51.070;16.998;2023-08-31T10:35:51;16.50;99.90
2907;DHT22;1463;51.070;16.998;2023-08-31T10:38:28;16.60;99.90
2907;DHT22;1463;51.070;16.998;2023-08-31T10:41:17;16.70;99.90
2907;DHT22;1463;51.070;16.998;2023-08-31T10:43:49;16.60;99.90
2907;DHT22;1463;51.070;16.998;2023-08-31T10:46:24;16.60;99.90
2907;DHT22;1463;51.070;16.998;2023-08-31T10:48:52;16.70;99.90
2907;DHT22;1463;51.070;16.998;2023-08-31T10:51:22;16.80;99.90
2907;DHT22;1463;51.070;16.998;2023-08-31T10:53:49;16.80;99.90
2907;DHT22;1463;51.070;16.998;2023-08-31T10:56:16;16.90;99.90
2907;DHT22;1463;51.070;16.998;2023-08-31T10:58:54;17.20;99.90
2907;DHT22;1463;51.070;16.998;2023-08-31T11:01:53;17.30;99.90
2907;DHT22;1463;51.070;16.998;2023-08-31T11:04:21;17.50;99.90
2907;DHT22;1463;51.070;16.998;2023-08-31T11:06:48;17.50;99.90
2907;DHT22;1463;51.070;16.998;2023-08-31T11:09:19;17.40;99.90
2907;DHT22;1463;51.070;16.998;2023-08-31T11:11:46;17.40;99.90
2907;DHT22;1463;51.070;16.998;2023-08-31T11:14:13;17.40;99.90
2907;DHT22;1463;51.070;16.998;2023-08-31T11:16:41;17.40;99.90
2907;DHT22;1463;51.070;16.998;2023-08-31T11:19:10;17.40;99.90
2907;DHT22;1463;51.070;16.998;2023-08-31T11:21:37;17.40;99.90
2907;DHT22;1463;51.070;16.998;2023-08-31T11:24:04;17.50;99.90
2907;DHT22;1463;51.070;16.998;2023-08-31T11:26:32;17.60;99.90
2907;DHT22;1463;51.070;16.998;2023-08-31T11:28:59;17.90;99.90
2907;DHT22;1463;51.070;16.998;2023-08-31T11:31:26;17.90;99.90
2907;DHT22;1463;51.070;16.998;2023-08-31T11:33:54;18.10;99.90
2907;DHT22;1463;51.070;16.998;2023-08-31T11:36:22;18.10;99.90
2907;DHT22;1463;51.070;16.998;2023-08-31T11:38:51;18.20;99.90
2907;DHT22;1463;51.070;16.998;2023-08-31T11:41:17;18.30;99.90
2907;DHT22;1463;51.070;16.998;2023-08-31T11:43:44;18.50;99.90
2907;DHT22;1463;51.070;16.998;2023-08-31T11:46:12;18.50;99.90
2907;DHT22;1463;51.070;16.998;2023-08-31T11:48:39;18.50;99.90
2907;DHT22;1463;51.070;16.998;2023-08-31T11:51:06;18.50;99.90
2907;DHT22;1463;51.070;16.998;2023-08-31T11:53:34;18.70;99.90
2907;DHT22;1463;51.070;16.998;2023-08-31T11:56:02;18.90;99.90
2907;DHT22;1463;51.070;16.998;2023-08-31T11:58:29;19.00;99.90
2907;DHT22;1463;51.070;16.998;2023-08-31T12:00:58;19.00;99.90
2907;DHT22;1463;51.070;16.998;2023-08-31T12:03:26;18.90;99.90
2907;DHT22;1463;51.070;16.998;2023-08-31T12:05:54;18.80;99.90
2907;DHT22;1463;51.070;16.998;2023-08-31T12:08:24;18.80;99.90
2907;DHT22;1463;51.070;16.998;2023-08-31T12:10:53;18.90;99.90
2907;DHT22;1463;51.070;16.998;2023-08-31T12:13:26;18.80;99.90
2907;DHT22;1463;51.070;16.998;2023-08-31T12:15:54;18.80;99.90
2907;DHT22;1463;51.070;16.998;2023-08-31T12:18:21;18.70;99.90
2907;DHT22;1463;51.070;16.998;2023-08-31T12:20:51;18.70;99.90
2907;DHT22;1463;51.070;16.998;2023-08-31T12:23:18;18.60;99.90
2907;DHT22;1463;51.070;16.998;2023-08-31T12:25:48;18.60;99.90
2907;DHT22;1463;51.070;16.998;2023-08-31T12:28:16;18.70;99.90
2907;DHT22;1463;51.070;16.998;2023-08-31T12:30:49;18.60;99.90
2907;DHT22;1463;51.070;16.998;2023-08-31T12:33:16;18.70;99.90
2907;DHT22;1463;51.070;16.998;2023-08-31T12:35:44;18.80;99.90
2907;DHT22;1463;51.070;16.998;2023-08-31T12:38:11;18.90;99.90
2907;DHT22;1463;51.070;16.998;2023-08-31T12:40:40;19.10;99.90
2907;DHT22;1463;51.070;16.998;2023-08-31T12:43:07;19.10;99.90
2907;DHT22;1463;51.070;16.998;2023-08-31T12:45:36;19.20;99.90
2907;DHT22;1463;51.070;16.998;2023-08-31T12:48:04;19.30;99.90
2907;DHT22;1463;51.070;16.998;2023-08-31T12:50:31;19.40;99.90
2907;DHT22;1463;51.070;16.998;2023-08-31T12:52:58;19.50;99.90
2907;DHT22;1463;51.070;16.998;2023-08-31T12:55:25;19.50;99.90
2907;DHT22;1463;51.070;16.998;2023-08-31T12:57:52;19.50;99.90
2907;DHT22;1463;51.070;16.998;2023-08-31T13:00:19;19.50;99.90
2907;DHT22;1463;51.070;16.998;2023-08-31T13:02:47;19.60;99.90
2907;DHT22;1463;51.070;16.998;2023-08-31T13:05:16;19.90;99.90
2907;DHT22;1463;51.070;16.998;2023-08-31T13:07:43;19.90;99.90
2907;DHT22;1463;51.070;16.998;2023-08-31T13:10:09;19.90;99.90
2907;DHT22;1463;51.070;16.998;2023-08-31T13:12:36;19.80;99.90
2907;DHT22;1463;51.070;16.998;2023-08-31T13:15:04;19.80;99.90
2907;DHT22;1463;51.070;16.998;2023-08-31T13:17:33;19.80;99.90
2907;DHT22;1463;51.070;16.998;2023-08-31T13:20:02;19.70;99.90
2907;DHT22;1463;51.070;16.998;2023-08-31T13:22:30;19.60;99.90
2907;DHT22;1463;51.070;16.998;2023-08-31T13:24:59;19.50;99.90
2907;DHT22;1463;51.070;16.998;2023-08-31T13:27:26;19.70;99.90
2907;DHT22;1463;51.070;16.998;2023-08-31T13:29:53;19.60;99.90
2907;DHT22;1463;51.070;16.998;2023-08-31T13:32:19;19.60;99.90
2907;DHT22;1463;51.070;16.998;2023-08-31T13:34:46;19.50;99.90
2907;DHT22;1463;51.070;16.998;2023-08-31T13:37:16;19.70;99.90
2907;DHT22;1463;51.070;16.998;2023-08-31T13:39:42;19.80;99.90
2907;DHT22;1463;51.070;16.998;2023-08-31T13:42:09;19.80;99.90
2907;DHT22;1463;51.070;16.998;2023-08-31T13:44:36;19.70;99.90
2907;DHT22;1463;51.070;16.998;2023-08-31T13:47:03;19.70;99.90
2907;DHT22;1463;51.070;16.998;2023-08-31T13:49:31;19.70;99.90
2907;DHT22;1463;51.070;16.998;2023-08-31T13:51:59;19.80;99.90
2907;DHT22;1463;51.070;16.998;2023-08-31T13:54:27;19.80;99.90
2907;DHT22;1463;51.070;16.998;2023-08-31T13:56:54;19.80;99.90
2907;DHT22;1463;51.070;16.998;2023-08-31T13:59:21;19.80;99.90
2907;DHT22;1463;51.070;16.998;2023-08-31T14:01:48;19.90;99.90
2907;DHT22;1463;51.070;16.998;2023-08-31T14:04:15;19.90;99.90
2907;DHT22;1463;51.070;16.998;2023-08-31T14:06:42;19.80;99.90
2907;DHT22;1463;51.070;16.998;2023-08-31T14:09:09;19.90;99.90
2907;DHT22;1463;51.070;16.998;2023-08-31T14:11:37;19.90;99.90
2907;DHT22;1463;51.070;16.998;2023-08-31T14:14:04;19.90;99.90
2907;DHT22;1463;51.070;16.998;2023-08-31T14:16:35;19.90;99.90
2907;DHT22;1463;51.070;16.998;2023-08-31T14:19:03;19.90;99.90
2907;DHT22;1463;51.070;16.998;2023-08-31T14:21:31;20.00;99.90
2907;DHT22;1463;51.070;16.998;2023-08-31T14:23:58;20.00;99.90
2907;DHT22;1463;51.070;16.998;2023-08-31T14:26:25;19.90;99.90
2907;DHT22;1463;51.070;16.998;2023-08-31T14:28:53;20.00;99.90
2907;DHT22;1463;51.070;16.998;2023-08-31T14:31:20;20.00;99.90
2907;DHT22;1463;51.070;16.998;2023-08-31T14:33:50;20.00;99.90
2907;DHT22;1463;51.070;16.998;2023-08-31T14:36:21;20.00;99.90
2907;DHT22;1463;51.070;16.998;2023-08-31T14:38:48;19.90;99.90
2907;DHT22;1463;51.070;16.998;2023-08-31T14:41:14;19.90;99.90
2907;DHT22;1463;51.070;16.998;2023-08-31T14:43:41;19.80;99.90
2907;DHT22;1463;51.070;16.998;2023-08-31T14:46:09;19.80;99.90
2907;DHT22;1463;51.070;16.998;2023-08-31T14:48:36;19.80;99.90
2907;DHT22;1463;51.070;16.998;2023-08-31T14:51:03;19.80;99.90
2907;DHT22;1463;51.070;16.998;2023-08-31T14:53:29;19.80;99.90
2907;DHT22;1463;51.070;16.998;2023-08-31T14:55:56;19.80;99.90
2907;DHT22;1463;51.070;16.998;2023-08-31T14:58:26;19.80;99.90
2907;DHT22;1463;51.070;16.998;2023-08-31T15:00:55;19.80;99.90
2907;DHT22;1463;51.070;16.998;2023-08-31T15:03:23;19.80;99.90
2907;DHT22;1463;51.070;16.998;2023-08-31T15:05:50;19.80;99.90
2907;DHT22;1463;51.070;16.998;2023-08-31T15:08:17;19.80;99.90
2907;DHT22;1463;51.070;16.998;2023-08-31T15:10:44;19.80;99.90
2907;DHT22;1463;51.070;16.998;2023-08-31T15:13:11;19.80;99.90
2907;DHT22;1463;51.070;16.998;2023-08-31T15:15:37;19.90;99.90
2907;DHT22;1463;51.070;16.998;2023-08-31T15:18:04;19.70;99.90
2907;DHT22;1463;51.070;16.998;2023-08-31T15:20:33;19.80;99.90
2907;DHT22;1463;51.070;16.998;2023-08-31T15:23:03;19.70;99.90
2907;DHT22;1463;51.070;16.998;2023-08-31T15:25:31;19.70;99.90
2907;DHT22;1463;51.070;16.998;2023-08-31T15:27:58;19.80;99.90
2907;DHT22;1463;51.070;16.998;2023-08-31T15:30:25;19.80;99.90
2907;DHT22;1463;51.070;16.998;2023-08-31T15:32:51;19.70;99.90
2907;DHT22;1463;51.070;16.998;2023-08-31T15:35:20;19.70;99.90
2907;DHT22;1463;51.070;16.998;2023-08-31T15:37:48;19.70;99.90
2907;DHT22;1463;51.070;16.998;2023-08-31T15:40:17;19.70;99.90
2907;DHT22;1463;51.070;16.998;2023-08-31T15:42:43;19.60;99.90
2907;DHT22;1463;51.070;16.998;2023-08-31T15:45:10;19.60;99.90
2907;DHT22;1463;51.070;16.998;2023-08-31T15:47:37;19.70;99.90
2907;DHT22;1463;51.070;16.998;2023-08-31T15:50:05;19.70;99.90